Airfield :
LOGIN :

Register | Disclaimer

   EN    FR    IT 

 










Legend :    VFR   Marginal VFR   IFR   Intensive IFR   Very Intensive IFR
Visi :
Ceiling :
>= 8 km
>= 3000ft
5 to 8 km
1000 to 3000 ft
1500m to 5 km
500 to 1000 ft
800 to 1500m
200 to 500 ft
< 800m
< 200 ft
Symbols :   Thunderstorms  Fog  Heavy snow  Heavy precipitations  Wind > 20 kt
SIGMETs :     Misc.  Thunderstorms  Icing  Turbulence  Mountain Waves  Volcanic Ashes







- Airport Elevation : 614 ft
- IATA code : CRL


EBCI - Charleroi

CURRENT METAR :
  • 240820Z 23012KT 9999 BKN013 10/07 Q1019 TEMPO BKN008

EXPIRED METARs :
  • 240750Z 23012KT 9999 BKN014 BKN040 10/06 Q1018 TEMPO BKN008
  • 240720Z 22011KT 9999 BKN014 BKN040 10/06 Q1018 TEMPO BKN008
  • 240650Z 22011KT 9999 BKN014 BKN040 09/06 Q1018 TEMPO BKN008
  • 240620Z 23012KT 9999 SCT015 BKN040 09/05 Q1018 TEMPO BKN014
  • 240550Z 22012KT CAVOK 08/05 Q1018 TEMPO BKN014

TAF TAF EBCI
Valid from the 24 at 06:00 until the 25 at 12:00 UTC


240520Z 2406/2512 23007KT 9999 FEW020
TEMPO 2408/2414 SCT008 BKN014
PROB30
TEMPO 2408/2411 4500 -RADZ BKN006
TEMPO 2506/2509 4500 -RADZ BKN008
No reported NOTAMs for that airfield.



MET'MAP, your aeronautical weather chart ! - Copyright ORBIFLY December 2007 - Disclaimer

ORBIFLY MET'MAP TEAM :

Programming & Development : Alexandra Zaïnal
Concept & Development : Baudouin d'Aumeries
Co-Development & Prog : Marc-Olivier Méhu
Technical & hardware support : Manuel Goepfert

Contact : metmap@orbifly.com




SOURCES & CREDITS :

   NOAA